Time;durP1;ratioP1;P1;durP2;ratioP2;P2;SDS_P1;SDS_P2;PMS_P1;PMS_P2;Temp;Humidity;BMP_temperature;BMP_pressure;BME280_temperature;BME280_humidity;BME280_pressure;Samples;Min_cycle;Max_cycle;Signal;HPM_P1;HPM_P2
2022/04/08 00:01:18;;;;;;;32.50;20.20;;;;;;;9.05;76.09;99247.81;4989044;28;20061;-85
2022/04/08 00:03:46;;;;;;;31.23;20.92;;;;;;;9.17;75.89;99272.31;4989200;28;20053;-85
2022/04/08 00:06:11;;;;;;;31.15;20.15;;;;;;;9.03;76.33;99255.22;4989507;28;20033;-85
2022/04/08 00:08:37;;;;;;;33.47;20.92;;;;;;;9.09;76.24;99254.47;4974186;28;20034;-86
2022/04/08 00:11:04;;;;;;;32.27;21.17;;;;;;;8.98;76.73;99252.25;4988447;28;20038;-84
2022/04/08 00:13:30;;;;;;;30.83;21.30;;;;;;;9.02;76.64;99254.38;4996152;28;20694;-86
2022/04/08 00:15:55;;;;;;;32.83;21.55;;;;;;;9.00;76.61;99256.41;4998132;28;21066;-84
2022/04/08 00:18:21;;;;;;;33.70;21.42;;;;;;;9.01;76.51;99259.91;5014402;28;20034;-85
2022/04/08 00:20:47;;;;;;;32.33;20.20;;;;;;;9.04;76.24;99243.50;4998910;28;20053;-86
2022/04/08 00:23:18;;;;;;;33.97;20.95;;;;;;;9.08;76.47;99264.38;4994275;28;20292;-84
2022/04/08 00:25:44;;;;;;;35.55;21.88;;;;;;;9.01;76.76;99252.75;4985173;28;20529;-85
2022/04/08 00:28:09;;;;;;;35.20;21.57;;;;;;;9.07;76.38;99253.81;5003532;28;20042;-85
2022/04/08 00:30:36;;;;;;;30.27;20.33;;;;;;;8.98;76.61;99233.50;4983759;28;20300;-84
2022/04/08 00:33:02;;;;;;;35.50;21.92;;;;;;;9.04;76.72;99247.00;5010985;28;20030;-86
2022/04/08 00:35:28;;;;;;;32.85;21.55;;;;;;;9.04;76.81;99256.91;4997510;28;20483;-84
2022/04/08 00:37:54;;;;;;;28.92;21.40;;;;;;;9.00;76.65;99234.97;4994293;28;20049;-84
2022/04/08 00:40:20;;;;;;;30.77;21.05;;;;;;;9.03;76.82;99239.94;5009730;28;20042;-84
2022/04/08 00:42:46;;;;;;;32.72;21.08;;;;;;;9.01;77.05;99247.38;4999393;28;20113;-86
2022/04/08 00:45:11;;;;;;;35.90;21.70;;;;;;;8.99;77.31;99244.03;4982174;28;20498;-85
2022/04/08 00:47:41;;;;;;;32.28;20.92;;;;;;;9.02;77.22;99249.03;4984317;28;20515;-84
2022/04/08 00:50:12;;;;;;;30.80;21.38;;;;;;;8.98;77.34;99237.00;4976411;28;20045;-84
2022/04/08 00:52:40;;;;;;;32.10;20.38;;;;;;;9.15;77.09;99259.09;4982600;28;20061;-83
2022/04/08 00:55:06;;;;;;;30.55;19.98;;;;;;;9.07;77.40;99260.03;5025381;28;20065;-84
2022/04/08 00:57:32;;;;;;;28.30;20.15;;;;;;;9.09;77.48;99265.22;4989858;28;20475;-85
2022/04/08 01:00:05;;;;;;;31.60;20.05;;;;;;;9.11;77.50;99259.63;5002193;28;20061;-85
2022/04/08 01:02:32;;;;;;;28.13;19.75;;;;;;;9.17;77.27;99266.94;4991561;28;20383;-84
2022/04/08 01:04:57;;;;;;;29.77;18.85;;;;;;;9.15;77.47;99277.03;4981675;28;20064;-84
2022/04/08 01:07:23;;;;;;;30.23;19.67;;;;;;;9.19;77.34;99281.00;5008409;28;20038;-85
2022/04/08 01:09:53;;;;;;;28.70;19.15;;;;;;;9.18;77.29;99280.19;5011770;28;20316;-85
2022/04/08 01:12:19;;;;;;;26.98;18.67;;;;;;;9.21;77.16;99284.34;4993074;28;20038;-85
2022/04/08 01:14:44;;;;;;;26.77;18.60;;;;;;;9.17;76.98;99266.94;4972733;28;20088;-84
2022/04/08 01:17:11;;;;;;;28.67;18.42;;;;;;;9.25;77.24;99280.28;4969771;28;20050;-86
2022/04/08 01:19:41;;;;;;;27.00;18.10;;;;;;;9.25;76.64;99277.59;5009781;28;20057;-84
2022/04/08 01:22:07;;;;;;;26.13;17.05;;;;;;;9.36;76.45;99281.63;4995037;28;20053;-86
2022/04/08 01:24:35;;;;;;;29.67;17.23;;;;;;;9.35;76.25;99277.31;5012463;28;20044;-85
2022/04/08 01:27:02;;;;;;;26.02;16.42;;;;;;;9.46;75.77;99277.66;4993672;28;20052;-84
2022/04/08 01:29:29;;;;;;;22.50;15.90;;;;;;;9.49;75.46;99285.31;4994049;28;20056;-84
2022/04/08 01:31:56;;;;;;;27.42;16.55;;;;;;;9.40;75.67;99274.88;5000531;28;20038;-86
2022/04/08 01:34:22;;;;;;;25.15;15.65;;;;;;;9.56;75.29;99282.72;5013053;28;20090;-84
2022/04/08 01:36:47;;;;;;;26.93;16.57;;;;;;;9.49;75.48;99290.69;4994803;28;20044;-85
2022/04/08 01:39:13;;;;;;;24.63;16.13;;;;;;;9.44;75.67;99285.06;4988992;28;20296;-83
2022/04/08 01:41:38;;;;;;;22.63;15.80;;;;;;;9.38;75.72;99296.53;5012337;28;20068;-83
2022/04/08 01:44:05;;;;;;;24.27;14.93;;;;;;;9.52;75.39;99292.97;5013543;28;20042;-84
2022/04/08 01:46:31;;;;;;;25.55;15.57;;;;;;;9.43;75.45;99288.75;5013088;28;20291;-85
2022/04/08 01:48:59;;;;;;;26.35;15.23;;;;;;;9.32;75.67;99275.81;4994434;28;20050;-86
2022/04/08 01:51:25;;;;;;;29.52;15.30;;;;;;;9.36;75.64;99295.88;4990229;28;20084;-85
2022/04/08 01:53:52;;;;;;;26.27;15.48;;;;;;;9.40;75.50;99288.31;4993318;28;20709;-85
2022/04/08 01:56:18;;;;;;;22.70;15.00;;;;;;;9.45;75.27;99286.72;4990137;28;20048;-84
2022/04/08 01:58:43;;;;;;;26.63;15.13;;;;;;;9.42;75.60;99283.59;4995690;28;20034;-85
2022/04/08 02:01:09;;;;;;;23.27;14.73;;;;;;;9.42;75.36;99279.03;4995431;28;20092;-84
2022/04/08 02:03:34;;;;;;;23.83;15.00;;;;;;;9.50;75.37;99294.19;4996005;28;20406;-82
2022/04/08 02:06:00;;;;;;;22.27;14.52;;;;;;;9.41;75.60;99290.81;4978770;28;20038;-85
2022/04/08 02:08:25;;;;;;;20.52;13.82;;;;;;;9.38;75.37;99279.59;4976245;28;20072;-84
2022/04/08 02:10:53;;;;;;;24.55;15.05;;;;;;;9.42;75.62;99297.81;4995664;28;20037;-86
2022/04/08 02:13:20;;;;;;;24.98;14.88;;;;;;;9.56;75.31;99296.13;4979322;28;21011;-86
2022/04/08 02:15:46;;;;;;;21.73;15.05;;;;;;;9.48;75.57;99302.44;5013593;28;20037;-85
2022/04/08 02:18:12;;;;;;;21.73;14.50;;;;;;;9.49;75.31;99285.31;5013474;28;20066;-86
2022/04/08 02:20:37;;;;;;;25.02;14.68;;;;;;;9.51;75.57;99296.69;4987979;28;20046;-86
2022/04/08 02:23:04;;;;;;;20.15;14.50;;;;;;;9.52;75.57;99287.63;4995921;28;20525;-85
2022/04/08 02:25:30;;;;;;;;;;;;;;;9.60;75.34;99299.25;4980589;28;20041;-85
2022/04/08 02:27:57;;;;;;;22.35;14.02;;;;;;;9.45;75.39;99289.38;5013219;28;19918;-87
2022/04/08 02:30:25;;;;;;;23.33;14.80;;;;;;;9.43;75.92;99293.28;4994389;28;20118;-87
2022/04/08 02:32:51;;;;;;;22.65;13.95;;;;;;;9.43;75.82;99301.31;4995756;28;20418;-85
2022/04/08 02:35:17;;;;;;;24.42;15.85;;;;;;;9.26;76.32;99303.38;4995077;28;20494;-86
2022/04/08 02:37:44;;;;;;;23.40;15.05;;;;;;;9.16;76.32;99289.44;4991646;28;20034;-84
2022/04/08 02:40:10;;;;;;;25.35;15.93;;;;;;;9.30;75.91;99305.50;5016338;28;20071;-85
2022/04/08 02:42:37;;;;;;;23.40;15.63;;;;;;;9.21;76.30;99311.97;5012522;28;20541;-85
2022/04/08 02:45:03;;;;;;;23.75;16.25;;;;;;;9.24;75.99;99305.41;5009568;28;20062;-83
2022/04/08 02:47:29;;;;;;;26.95;16.38;;;;;;;9.34;75.91;99316.72;5014432;28;20030;-86
2022/04/08 02:49:54;;;;;;;26.75;15.95;;;;;;;9.24;76.02;99310.78;5013587;28;20062;-84
2022/04/08 02:52:20;;;;;;;26.13;17.25;;;;;;;9.11;75.78;99298.03;5009765;28;20037;-83
2022/04/08 02:54:46;;;;;;;27.35;16.70;;;;;;;9.23;75.68;99331.41;4992500;28;20068;-84
2022/04/08 02:57:12;;;;;;;24.45;15.90;;;;;;;9.27;75.41;99329.16;5009172;28;20447;-85
2022/04/08 02:59:37;;;;;;;24.47;16.23;;;;;;;9.24;75.45;99324.19;4994091;28;20042;-82
2022/04/08 03:02:03;;;;;;;27.58;16.65;;;;;;;9.25;75.34;99325.88;5008730;28;20081;-83
2022/04/08 03:04:29;;;;;;;30.25;17.75;;;;;;;9.22;75.47;99334.25;4994514;28;20050;-84
2022/04/08 03:06:58;;;;;;;27.33;16.15;;;;;;;9.15;75.84;99350.25;5002545;28;20068;-85
2022/04/08 03:09:24;;;;;;;21.98;14.32;;;;;;;9.16;75.80;99340.38;5013475;28;20052;-84
2022/04/08 03:11:49;;;;;;;25.02;14.30;;;;;;;9.18;75.51;99349.06;4991576;28;20058;-84
2022/04/08 03:14:15;;;;;;;26.90;14.05;;;;;;;9.20;74.91;99338.97;5012707;28;20045;-85
2022/04/08 03:16:42;;;;;;;23.35;13.63;;;;;;;9.24;74.95;99351.81;4994970;28;20068;-86
2022/04/08 03:19:08;;;;;;;19.80;12.80;;;;;;;9.30;74.57;99351.09;5016677;28;20054;-86
2022/04/08 03:21:33;;;;;;;21.83;12.93;;;;;;;9.40;74.36;99348.13;5007563;28;20030;-82
2022/04/08 03:23:59;;;;;;;20.92;12.88;;;;;;;9.42;74.22;99350.66;5022009;28;20788;-85
2022/04/08 03:26:25;;;;;;;18.73;12.63;;;;;;;9.56;73.58;99357.84;4959394;28;20057;-84
2022/04/08 03:28:52;;;;;;;19.05;13.00;;;;;;;9.56;73.68;99362.41;5009813;28;20037;-84
2022/04/08 03:31:17;;;;;;;21.90;13.38;;;;;;;9.49;73.53;99351.56;4990257;28;20426;-84
2022/04/08 03:33:43;;;;;;;21.40;12.90;;;;;;;9.53;73.52;99363.59;5011648;28;20049;-85
2022/04/08 03:36:10;;;;;;;24.85;13.40;;;;;;;9.46;73.81;99379.59;5007984;28;20302;-85
2022/04/08 03:38:39;;;;;;;18.98;12.63;;;;;;;9.54;73.52;99381.34;5005146;28;20066;-85
2022/04/08 03:41:04;;;;;;;21.23;12.32;;;;;;;9.60;73.18;99387.81;5005545;28;20053;-84
2022/04/08 03:43:30;;;;;;;17.58;12.35;;;;;;;9.55;72.85;99364.22;5007953;28;20037;-84
2022/04/08 03:45:55;;;;;;;20.58;12.25;;;;;;;9.64;72.75;99378.38;5015306;28;20041;-85
2022/04/08 03:48:21;;;;;;;22.63;12.67;;;;;;;9.60;73.05;99375.25;4997391;28;20180;-83
2022/04/08 03:50:46;;;;;;;21.63;14.13;;;;;;;9.56;73.17;99390.06;4994660;28;20378;-85
2022/04/08 03:53:13;;;;;;;16.30;12.17;;;;;;;9.66;72.91;99393.28;5004576;28;20037;-85
2022/04/08 03:55:41;;;;;;;;;;;;;;;9.58;73.01;99393.38;4985434;28;20830;-85
2022/04/08 03:58:08;;;;;;;23.52;13.35;;;;;;;9.52;73.24;99394.94;5008165;28;19924;-85
2022/04/08 04:00:34;;;;;;;21.05;12.45;;;;;;;9.46;73.26;99390.34;5010008;28;20055;-84
2022/04/08 04:03:00;;;;;;;22.92;12.60;;;;;;;9.64;72.77;99391.78;4976823;28;20510;-84
2022/04/08 04:05:27;;;;;;;18.40;12.83;;;;;;;9.73;72.39;99385.31;4992078;28;20042;-83
2022/04/08 04:07:53;;;;;;;20.35;12.93;;;;;;;9.55;72.59;99361.53;4989785;28;20296;-84
2022/04/08 04:10:18;;;;;;;21.00;12.48;;;;;;;9.66;72.56;99398.66;5010449;28;20056;-85
2022/04/08 04:12:44;;;;;;;31.00;14.48;;;;;;;9.75;72.27;99407.44;5021370;28;20129;-83
2022/04/08 04:15:10;;;;;;;23.15;12.93;;;;;;;9.69;72.24;99421.59;4980106;28;20100;-84
2022/04/08 04:17:38;;;;;;;23.33;13.35;;;;;;;9.56;72.72;99421.41;4991191;28;20168;-85
2022/04/08 04:20:06;;;;;;;23.97;13.60;;;;;;;9.67;72.49;99426.34;5010187;28;20057;-85
2022/04/08 04:22:31;;;;;;;23.73;13.10;;;;;;;9.82;71.95;99432.50;4998482;28;20871;-83
2022/04/08 04:24:58;;;;;;;24.63;14.00;;;;;;;9.87;71.67;99440.84;5017135;28;20030;-83
2022/04/08 04:27:24;;;;;;;26.65;14.60;;;;;;;9.95;71.78;99450.66;4990921;28;20485;-86
2022/04/08 04:29:51;;;;;;;28.73;14.45;;;;;;;10.02;71.30;99448.03;5010373;28;20095;-84
2022/04/08 04:32:19;;;;;;;23.80;13.45;;;;;;;10.11;71.14;99452.28;5009746;28;20038;-85
2022/04/08 04:34:45;;;;;;;26.42;13.85;;;;;;;10.16;70.70;99455.28;4991482;28;20392;-85
2022/04/08 04:37:11;;;;;;;21.38;12.85;;;;;;;10.15;70.95;99465.16;4991631;28;20132;-86
2022/04/08 04:39:37;;;;;;;22.73;13.32;;;;;;;10.37;70.38;99459.03;4989762;28;20038;-85
2022/04/08 04:42:03;;;;;;;27.60;13.60;;;;;;;10.47;69.83;99462.28;4984932;28;20056;-85
2022/04/08 04:44:30;;;;;;;;;;;;;;;10.55;69.53;99464.84;4978454;28;20045;-86
2022/04/08 04:46:55;;;;;;;24.42;13.18;;;;;;;10.56;69.62;99461.16;5008399;28;19929;-85
2022/04/08 04:49:22;;;;;;;20.77;14.00;;;;;;;10.54;69.69;99471.25;5007910;28;20062;-84
2022/04/08 04:51:50;;;;;;;21.88;13.68;;;;;;;10.71;69.35;99461.91;4976159;28;20052;-86
2022/04/08 04:54:19;;;;;;;29.55;14.35;;;;;;;10.82;68.78;99465.13;4992340;28;20026;-82
2022/04/08 04:56:45;;;;;;;30.17;13.80;;;;;;;10.90;68.63;99463.13;4991240;28;20030;-83
2022/04/08 04:59:11;;;;;;;28.52;13.88;;;;;;;10.89;68.69;99472.22;5003966;28;20521;-83
2022/04/08 05:01:36;;;;;;;24.83;14.02;;;;;;;10.96;68.69;99477.69;4993067;28;20057;-84
2022/04/08 05:04:02;;;;;;;20.50;13.40;;;;;;;10.99;68.84;99488.03;5011389;28;20101;-84
2022/04/08 05:06:28;;;;;;;21.20;14.63;;;;;;;10.91;68.54;99494.38;4992920;28;20038;-85
2022/04/08 05:08:54;;;;;;;26.55;14.05;;;;;;;11.04;68.67;99496.38;4992765;28;20030;-85
2022/04/08 05:11:19;;;;;;;26.60;14.10;;;;;;;11.08;68.45;99494.13;4992994;28;20030;-84
2022/04/08 05:13:45;;;;;;;23.25;14.73;;;;;;;10.90;68.96;99494.56;5009409;28;20081;-85
2022/04/08 05:16:10;;;;;;;28.55;14.48;;;;;;;11.10;68.28;99498.28;4978212;28;20042;-84
2022/04/08 05:18:37;;;;;;;26.38;14.35;;;;;;;11.46;67.21;99502.72;5010157;28;20414;-84
2022/04/08 05:21:03;;;;;;;22.52;14.35;;;;;;;12.00;65.52;99496.72;4992088;28;20061;-85
2022/04/08 05:23:29;;;;;;;23.75;13.85;;;;;;;12.71;63.61;99517.13;4992001;28;20034;-85
2022/04/08 05:25:58;;;;;;;23.40;13.60;;;;;;;13.11;61.60;99506.47;5009500;28;20038;-84
2022/04/08 05:28:23;;;;;;;22.23;13.45;;;;;;;13.03;61.34;99522.81;4991355;28;20111;-84
2022/04/08 05:30:49;;;;;;;18.88;13.02;;;;;;;13.39;60.38;99522.50;5009459;28;20034;-84
2022/04/08 05:33:14;;;;;;;23.60;12.93;;;;;;;14.68;56.77;99525.56;4991219;28;20379;-83
2022/04/08 05:35:40;;;;;;;24.83;12.77;;;;;;;15.55;53.57;99523.97;4976344;28;20056;-84
2022/04/08 05:38:05;;;;;;;24.88;12.70;;;;;;;15.71;52.98;99522.63;5010982;28;20125;-86
2022/04/08 05:40:31;;;;;;;22.35;11.95;;;;;;;16.88;50.13;99538.03;4996296;28;20466;-85
2022/04/08 05:42:57;;;;;;;24.08;11.90;;;;;;;17.67;47.49;99527.00;4993602;28;20125;-84
2022/04/08 05:45:22;;;;;;;;;;;;;;;17.76;47.26;99533.75;5010783;28;20044;-85
2022/04/08 05:47:50;;;;;;;15.18;11.30;;;;;;;17.92;46.24;99532.25;5011858;28;19971;-83
2022/04/08 05:50:15;;;;;;;20.42;11.57;;;;;;;18.28;45.26;99517.56;4999068;28;20190;-83
2022/04/08 05:52:41;;;;;;;;;;;;;;;18.93;43.65;99530.06;4982580;28;20042;-84
2022/04/08 05:55:07;;;;;;;16.42;11.00;;;;;;;18.58;43.75;99540.22;5000168;28;19913;-85
2022/04/08 05:57:34;;;;;;;16.77;11.27;;;;;;;19.31;42.47;99541.38;4997589;28;20102;-84
2022/04/08 06:00:00;;;;;;;20.23;10.68;;;;;;;18.98;43.01;99549.22;4999158;28;20033;-85
2022/04/08 06:02:25;;;;;;;;;;;;;;;18.53;43.33;99540.94;5004591;28;20099;-84
2022/04/08 06:04:54;;;;;;;27.90;11.30;;;;;;;19.09;42.80;99536.63;5022681;28;20401;-84
2022/04/08 06:07:25;;;;;;;21.73;11.32;;;;;;;20.36;39.83;99526.13;5005983;28;20068;-85
2022/04/08 06:10:01;;;;;;;18.10;10.25;;;;;;;21.50;38.26;99531.78;5004872;28;20025;-84
2022/04/08 06:12:28;;;;;;;20.02;11.55;;;;;;;22.27;36.05;99524.16;5001868;28;20029;-84
2022/04/08 06:14:54;;;;;;;17.58;10.70;;;;;;;22.40;35.01;99500.94;4964735;28;20049;-85
2022/04/08 06:17:19;;;;;;;22.17;11.20;;;;;;;23.46;33.99;99528.88;4983154;28;20075;-85
2022/04/08 06:19:51;;;;;;;21.08;10.85;;;;;;;24.00;33.35;99539.34;4996899;28;20061;-84
2022/04/08 06:22:16;;;;;;;21.88;9.95;;;;;;;25.34;30.14;99534.97;5012851;28;20422;-84
2022/04/08 06:24:44;;;;;;;16.65;10.10;;;;;;;25.64;30.19;99541.34;5015238;28;20042;-85
2022/04/08 06:27:18;;;;;;;17.58;9.80;;;;;;;25.86;29.62;99536.22;5001260;28;20056;-82
2022/04/08 06:29:45;;;;;;;21.90;10.33;;;;;;;26.91;27.63;99527.34;4985263;28;20042;-83
2022/04/08 06:32:10;;;;;;;26.95;10.43;;;;;;;27.61;26.80;99526.56;5034206;28;20057;-81
2022/04/08 06:34:36;;;;;;;22.15;9.88;;;;;;;26.92;27.76;99527.00;5004617;28;20034;-84
2022/04/08 06:37:02;;;;;;;15.75;9.07;;;;;;;27.20;26.80;99537.44;5014233;28;20491;-83
2022/04/08 06:39:27;;;;;;;17.73;9.80;;;;;;;26.80;27.71;99542.38;5014157;28;20029;-81
2022/04/08 06:41:53;;;;;;;16.90;8.82;;;;;;;28.36;25.62;99546.81;5012434;28;20033;-82
2022/04/08 06:44:18;;;;;;;11.50;8.30;;;;;;;28.04;25.22;99544.91;5012547;28;20037;-85
2022/04/08 06:46:44;;;;;;;17.05;8.38;;;;;;;28.81;24.75;99560.84;4983197;28;20089;-85
2022/04/08 06:49:09;;;;;;;20.17;10.15;;;;;;;29.15;24.09;99565.94;5011673;28;20666;-85
2022/04/08 06:51:35;;;;;;;15.80;9.32;;;;;;;29.52;23.65;99565.91;4981295;28;20038;-84
2022/04/08 06:54:00;;;;;;;18.35;9.10;;;;;;;28.94;24.30;99550.88;5013338;28;20390;-84
2022/04/08 06:56:28;;;;;;;16.08;7.50;;;;;;;29.10;23.34;99546.66;5003270;28;20022;-84
2022/04/08 06:58:53;;;;;;;14.90;7.68;;;;;;;30.97;22.17;99556.25;4999707;28;20530;-85
2022/04/08 07:01:19;;;;;;;20.55;7.85;;;;;;;31.06;21.30;99557.09;4998303;28;20453;-86
2022/04/08 07:03:45;;;;;;;21.33;8.73;;;;;;;31.60;21.39;99568.72;4973016;28;20045;-85
2022/04/08 07:06:10;;;;;;;17.00;7.53;;;;;;;30.06;21.97;99564.84;5003875;28;20417;-85
2022/04/08 07:08:39;;;;;;;15.20;7.65;;;;;;;29.18;23.76;99568.06;4999481;28;20042;-85
2022/04/08 07:11:04;;;;;;;13.00;7.40;;;;;;;29.97;22.41;99577.84;5000861;28;20037;-83
2022/04/08 07:13:30;;;;;;;13.63;7.18;;;;;;;29.99;22.41;99578.34;5016553;28;20517;-84
2022/04/08 07:15:55;;;;;;;11.75;6.75;;;;;;;28.84;23.59;99574.03;5015110;28;20038;-84
2022/04/08 07:18:21;;;;;;;18.60;7.40;;;;;;;27.61;25.43;99573.50;5017546;28;20486;-84
2022/04/08 07:20:47;;;;;;;9.93;6.53;;;;;;;28.54;24.25;99576.31;4963665;28;20026;-85
2022/04/08 07:23:13;;;;;;;13.30;6.90;;;;;;;28.47;24.08;99580.59;4979091;28;20026;-83
2022/04/08 07:25:39;;;;;;;14.45;6.97;;;;;;;28.16;24.60;99576.44;5000031;28;20549;-86
2022/04/08 07:28:04;;;;;;;13.57;6.90;;;;;;;27.64;24.97;99588.66;4998645;28;20564;-87
2022/04/08 07:30:30;;;;;;;14.45;7.00;;;;;;;28.66;23.60;99588.78;5019729;28;20041;-84
2022/04/08 07:32:56;;;;;;;16.10;7.55;;;;;;;28.57;24.06;99600.59;4989682;28;20102;-86
2022/04/08 07:35:23;;;;;;;15.35;7.03;;;;;;;29.20;22.94;99593.50;5003084;28;20418;-86
2022/04/08 07:37:48;;;;;;;19.42;6.82;;;;;;;29.12;23.04;99613.59;4979850;28;20477;-84
2022/04/08 07:40:16;;;;;;;18.60;6.57;;;;;;;29.29;22.75;99612.13;5014695;28;20026;-84
2022/04/08 07:42:42;;;;;;;8.85;5.93;;;;;;;29.34;22.47;99621.16;4981980;28;20057;-84
2022/04/08 07:45:08;;;;;;;11.65;5.65;;;;;;;28.37;23.33;99625.81;4995950;28;20104;-84
2022/04/08 07:47:34;;;;;;;7.85;5.50;;;;;;;28.92;23.09;99633.38;5012969;28;20621;-85
2022/04/08 07:50:09;;;;;;;9.73;5.45;;;;;;;28.46;23.21;99634.22;5013520;28;20022;-85
2022/04/08 07:52:34;;;;;;;;;;;;;;;27.99;24.36;99623.97;4981556;28;20040;-85
2022/04/08 07:55:00;;;;;;;18.35;5.82;;;;;;;28.27;23.61;99640.63;5016241;28;19909;-84
2022/04/08 07:57:25;;;;;;;11.30;5.47;;;;;;;28.15;23.41;99632.03;5014517;28;20044;-84
2022/04/08 07:59:51;;;;;;;13.18;5.35;;;;;;;27.74;23.69;99635.41;5014122;28;20030;-85
2022/04/08 08:02:17;;;;;;;7.70;5.15;;;;;;;28.14;22.94;99644.19;5013928;28;20175;-85
2022/04/08 08:04:43;;;;;;;14.45;5.95;;;;;;;28.64;22.67;99651.91;5020296;28;20057;-85
2022/04/08 08:07:09;;;;;;;10.68;5.30;;;;;;;27.66;23.41;99649.91;5017228;28;20041;-85
2022/04/08 08:09:34;;;;;;;9.32;5.30;;;;;;;27.45;23.48;99646.63;5014605;28;20422;-85
2022/04/08 08:12:01;;;;;;;10.38;5.50;;;;;;;27.01;24.55;99667.84;5012795;28;20045;-88
2022/04/08 08:14:28;;;;;;;10.90;5.10;;;;;;;27.37;23.20;99642.59;4994576;28;20206;-85
2022/04/08 08:16:53;;;;;;;15.10;5.40;;;;;;;27.26;23.40;99644.66;5012893;28;20048;-84
2022/04/08 08:19:19;;;;;;;11.25;5.53;;;;;;;27.42;23.35;99650.81;5018506;28;20062;-86
2022/04/08 08:21:45;;;;;;;11.68;5.50;;;;;;;27.15;23.75;99632.91;5001333;28;20068;-84
2022/04/08 08:24:11;;;;;;;9.85;5.68;;;;;;;28.27;23.12;99657.22;5020275;28;20029;-85
2022/04/08 08:26:37;;;;;;;12.82;5.03;;;;;;;28.71;21.53;99647.59;5020508;28;20036;-86
2022/04/08 08:29:02;;;;;;;10.00;4.10;;;;;;;27.83;22.46;99660.41;5002180;28;20038;-85
2022/04/08 08:31:28;;;;;;;7.32;4.43;;;;;;;28.38;21.94;99666.97;4999925;28;20082;-86
2022/04/08 08:34:03;;;;;;;7.68;4.30;;;;;;;29.05;21.50;99655.47;4987581;28;20452;-86
2022/04/08 08:36:31;;;;;;;9.13;4.10;;;;;;;29.46;21.02;99643.56;5019034;28;20044;-85
2022/04/08 08:38:57;;;;;;;13.60;4.25;;;;;;;29.81;20.61;99645.84;5004977;28;20022;-89
2022/04/08 08:41:23;;;;;;;11.23;4.28;;;;;;;29.23;20.88;99648.22;4971273;28;20033;-88
2022/04/08 08:43:49;;;;;;;7.20;4.15;;;;;;;29.02;21.17;99655.28;5004531;28;20101;-84
2022/04/08 08:46:16;;;;;;;16.70;4.53;;;;;;;28.61;21.47;99642.25;4999956;28;20053;-85
2022/04/08 08:48:44;;;;;;;14.20;4.50;;;;;;;29.45;21.56;99639.16;5002709;28;20054;-84
2022/04/08 08:51:10;;;;;;;15.02;4.40;;;;;;;29.16;22.05;99649.78;5003093;28;20113;-85
2022/04/08 08:53:36;;;;;;;8.65;4.32;;;;;;;28.12;22.73;99661.06;4969036;28;20066;-85
2022/04/08 08:56:01;;;;;;;11.82;4.30;;;;;;;26.33;25.17;99668.81;4990610;28;20030;-85
2022/04/08 08:58:34;;;;;;;9.98;4.15;;;;;;;27.33;23.89;99652.59;5000182;28;20038;-85
2022/04/08 09:01:00;;;;;;;8.57;4.40;;;;;;;28.34;23.04;99654.06;4997572;28;20029;-85
2022/04/08 09:03:29;;;;;;;16.15;4.60;;;;;;;28.09;22.99;99631.28;4978808;28;20053;-84
2022/04/08 09:06:05;;;;;;;8.27;4.20;;;;;;;28.93;21.81;99635.81;4987545;28;20038;-86
2022/04/08 09:08:35;;;;;;;7.13;3.95;;;;;;;29.14;21.66;99641.78;4996671;28;20038;-83
2022/04/08 09:11:03;;;;;;;11.32;3.83;;;;;;;28.49;21.98;99653.00;4998428;28;20528;-83
2022/04/08 09:13:30;;;;;;;10.55;3.83;;;;;;;28.39;22.48;99657.56;4979082;28;20042;-83
2022/04/08 09:15:59;;;;;;;9.93;3.70;;;;;;;28.70;21.98;99656.19;5018214;28;20037;-83
2022/04/08 09:18:31;;;;;;;6.45;3.60;;;;;;;28.51;21.98;99664.56;5015341;28;20633;-83
2022/04/08 09:20:59;;;;;;;6.15;3.40;;;;;;;28.75;21.85;99681.81;4983918;28;20103;-83
2022/04/08 09:23:28;;;;;;;14.57;3.97;;;;;;;29.53;21.30;99667.25;4979578;28;20061;-83
2022/04/08 09:26:04;;;;;;;11.07;3.95;;;;;;;29.64;20.51;99680.53;4996042;28;20037;-86
2022/04/08 09:28:45;;;;;;;8.55;3.90;;;;;;;30.16;20.25;99684.91;4982259;28;20037;-84
2022/04/08 09:31:20;;;;;;;10.75;3.35;;;;;;;28.93;20.71;99688.38;5016478;28;20026;-86
2022/04/08 09:33:49;;;;;;;7.45;3.33;;;;;;;29.31;20.24;99692.91;5016697;28;20054;-85
2022/04/08 09:36:35;;;;;;;7.78;3.10;;;;;;;28.89;20.53;99703.13;5017423;28;20030;-84
2022/04/08 09:39:06;;;;;;;7.38;3.10;;;;;;;28.50;20.37;99710.75;5016608;28;20045;-85
2022/04/08 09:41:38;;;;;;;7.68;3.10;;;;;;;27.98;20.98;99694.16;4998740;28;20117;-86
2022/04/08 09:44:07;;;;;;;12.40;3.30;;;;;;;29.40;19.68;99702.94;4999226;28;20042;-85
2022/04/08 09:46:36;;;;;;;8.68;3.30;;;;;;;27.97;20.60;99684.22;4989802;28;20410;-86
2022/04/08 09:49:04;;;;;;;7.85;2.80;;;;;;;29.60;19.40;99704.44;5004706;28;20033;-86
2022/04/08 09:51:32;;;;;;;6.93;2.95;;;;;;;29.96;18.82;99672.34;5003170;28;20107;-86
2022/04/08 09:54:02;;;;;;;12.20;3.20;;;;;;;31.52;17.71;99697.31;5016383;28;20034;-84
2022/04/08 09:56:28;;;;;;;6.45;3.00;;;;;;;32.84;15.81;99674.63;5000702;28;20064;-89
2022/04/08 09:59:13;;;;;;;9.68;2.90;;;;;;;33.01;16.29;99688.47;4983906;28;20038;-88
2022/04/08 10:01:47;;;;;;;5.63;2.97;;;;;;;32.08;16.96;99680.88;4985412;28;20111;-88
2022/04/08 10:04:15;;;;;;;9.13;3.10;;;;;;;31.57;17.51;99672.16;5020372;28;20100;-87
2022/04/08 10:07:05;;;;;;;3.72;2.60;;;;;;;31.60;17.48;99676.25;4989036;28;20046;-89
2022/04/08 10:09:35;;;;;;;6.88;2.90;;;;;;;32.18;16.82;99689.66;5019170;28;20046;-88
2022/04/08 10:12:37;;;;;;;9.77;3.05;;;;;;;33.16;15.66;99681.53;4999910;28;20046;-85
2022/04/08 10:15:32;;;;;;;7.70;2.88;;;;;;;33.24;15.99;99682.63;5020711;28;20391;-88
2022/04/08 10:18:03;;;;;;;7.22;2.60;;;;;;;30.61;18.03;99682.91;4955034;29;20157;-84
2022/04/08 10:20:35;;;;;;;6.18;2.70;;;;;;;30.22;18.16;99667.81;4931121;29;20078;-89
2022/04/08 10:23:12;;;;;;;12.15;2.80;;;;;;;31.79;16.63;99684.25;4996883;28;20037;-87
2022/04/08 10:26:04;;;;;;;6.22;2.80;;;;;;;29.92;18.16;99694.31;5033180;28;20041;-87
2022/04/08 10:28:39;;;;;;;7.72;2.80;;;;;;;30.44;17.77;99693.91;5025519;28;20057;-85
2022/04/08 10:31:41;;;;;;;9.50;2.67;;;;;;;31.50;17.12;99699.59;4982904;28;20048;-85
2022/04/08 10:34:06;;;;;;;6.55;2.60;;;;;;;32.32;16.19;99686.69;5003676;28;20170;-86
2022/04/08 10:36:53;;;;;;;9.45;2.80;;;;;;;32.79;15.77;99689.53;4997988;28;20056;-85
2022/04/08 10:39:22;;;;;;;8.68;2.60;;;;;;;31.91;16.22;99692.75;5005355;28;20076;-86
2022/04/08 10:42:00;;;;;;;4.75;2.92;;;;;;;31.60;16.78;99701.25;5013118;28;20478;-89
2022/04/08 10:44:33;;;;;;;8.73;2.63;;;;;;;31.86;16.54;99699.28;4993494;28;20041;-88
2022/04/08 10:47:16;;;;;;;7.75;2.90;;;;;;;31.98;16.30;99701.44;4994187;28;20050;-87
2022/04/08 10:49:58;;;;;;;8.23;2.90;;;;;;;31.70;17.05;99715.66;5013157;28;20033;-87
2022/04/08 10:52:26;;;;;;;6.50;2.80;;;;;;;32.56;16.07;99702.84;5015666;28;20045;-85
2022/04/08 10:55:13;;;;;;;7.90;2.53;;;;;;;33.36;15.12;99721.72;5015578;28;20036;-87
2022/04/08 10:57:40;;;;;;;10.07;2.60;;;;;;;31.99;16.26;99714.22;5016390;28;20054;-87
2022/04/08 11:00:10;;;;;;;5.63;2.58;;;;;;;31.93;16.13;99713.50;5027191;28;20370;-84
2022/04/08 11:02:38;;;;;;;6.38;2.40;;;;;;;30.64;17.49;99711.97;5030038;28;20022;-86
2022/04/08 11:05:12;;;;;;;8.85;2.55;;;;;;;31.55;16.62;99724.44;5003628;28;20060;-86
2022/04/08 11:07:45;;;;;;;6.47;2.60;;;;;;;30.92;16.97;99727.31;4979603;28;20104;-85
2022/04/08 11:10:31;;;;;;;4.38;2.30;;;;;;;30.94;16.53;99710.34;4994752;28;20265;-86
2022/04/08 11:12:57;;;;;;;6.60;2.10;;;;;;;30.32;17.07;99711.13;5008115;28;20042;-85
2022/04/08 11:15:25;;;;;;;12.05;2.30;;;;;;;30.60;16.71;99720.13;4993009;28;20054;-85
2022/04/08 11:17:51;;;;;;;7.78;2.28;;;;;;;30.82;16.28;99713.69;4978409;28;20592;-86
2022/04/08 11:20:19;;;;;;;11.93;2.50;;;;;;;31.37;15.88;99722.72;4967973;28;20047;-88
2022/04/08 11:22:50;;;;;;;5.03;2.20;;;;;;;30.63;16.62;99724.22;4974215;28;20026;-85
2022/04/08 11:25:24;;;;;;;11.32;2.38;;;;;;;29.73;17.71;99735.22;4994241;28;20041;-84
2022/04/08 11:28:06;;;;;;;7.72;2.20;;;;;;;29.00;18.25;99738.59;5014011;28;20029;-84
2022/04/08 11:30:33;;;;;;;6.93;2.10;;;;;;;29.02;17.87;99735.53;4970801;28;20077;-84